createdAt,value
2018-07-10T00:00:09.101Z,0.00
2018-07-10T00:01:09.095Z,0.00
2018-07-10T00:02:09.032Z,0.00
2018-07-10T00:03:08.987Z,0.00
2018-07-10T00:04:08.950Z,0.00
2018-07-10T00:05:08.918Z,0.00
2018-07-10T00:06:08.881Z,0.00
2018-07-10T00:07:08.868Z,0.00
2018-07-10T00:08:08.834Z,0.00
2018-07-10T00:09:08.762Z,0.00
2018-07-10T00:10:08.722Z,0.00
2018-07-10T00:11:08.688Z,0.00
2018-07-10T00:12:08.696Z,0.00
2018-07-10T00:13:08.624Z,0.00
2018-07-10T00:14:08.580Z,0.00
2018-07-10T00:15:08.551Z,0.00
2018-07-10T00:16:08.504Z,0.00
2018-07-10T00:17:08.485Z,0.00
2018-07-10T00:18:08.422Z,0.00
2018-07-10T00:19:08.392Z,0.00
2018-07-10T00:20:08.354Z,0.00
2018-07-10T00:21:08.310Z,0.00
2018-07-10T00:22:08.309Z,0.00
2018-07-10T00:23:08.238Z,0.00
2018-07-10T00:24:08.199Z,0.00
2018-07-10T00:25:08.170Z,0.00
2018-07-10T00:26:08.129Z,0.00
2018-07-10T00:27:08.093Z,0.00
2018-07-10T00:28:08.084Z,0.00
2018-07-10T00:29:08.013Z,0.00
2018-07-10T00:30:07.974Z,0.00
2018-07-10T00:31:07.936Z,0.00
2018-07-10T00:32:07.904Z,0.00
2018-07-10T00:33:07.889Z,0.00
2018-07-10T00:34:07.829Z,0.00
2018-07-10T00:35:07.785Z,0.00
2018-07-10T00:36:07.749Z,0.00
2018-07-10T00:37:07.718Z,0.00
2018-07-10T00:38:07.704Z,0.00
2018-07-10T00:39:07.642Z,0.00
2018-07-10T00:40:07.602Z,0.00
2018-07-10T00:41:07.561Z,0.00
2018-07-10T00:42:07.521Z,0.00
2018-07-10T00:43:07.485Z,0.00
2018-07-10T00:44:07.466Z,0.00
2018-07-10T00:45:07.416Z,0.00
2018-07-10T00:46:07.377Z,0.00
2018-07-10T00:47:07.338Z,0.00
2018-07-10T00:48:07.303Z,0.00
2018-07-10T00:49:07.278Z,0.00
2018-07-10T00:50:07.220Z,0.00
2018-07-10T00:51:07.191Z,0.00
2018-07-10T00:52:07.151Z,0.00
2018-07-10T00:53:07.104Z,0.00
2018-07-10T00:54:07.094Z,0.00
2018-07-10T00:55:07.031Z,0.00
2018-07-10T00:56:06.991Z,0.00
2018-07-10T00:57:06.960Z,0.00
2018-07-10T00:58:06.922Z,0.00
2018-07-10T00:59:06.894Z,0.00
2018-07-10T01:00:06.868Z,0.00
2018-07-10T01:01:06.804Z,0.00
2018-07-10T01:02:06.765Z,0.00
2018-07-10T01:03:06.725Z,0.00
2018-07-10T01:04:06.691Z,0.00
2018-07-10T01:05:06.675Z,0.00
2018-07-10T01:06:06.618Z,0.00
2018-07-10T01:07:06.578Z,0.00
2018-07-10T01:08:06.539Z,0.00
2018-07-10T01:09:06.507Z,0.00
2018-07-10T01:10:06.465Z,0.00
2018-07-10T01:11:06.469Z,0.00
2018-07-10T01:12:06.396Z,0.00
2018-07-10T01:13:06.353Z,0.00
2018-07-10T01:14:06.308Z,0.00
2018-07-10T01:15:06.271Z,0.00
2018-07-10T01:16:06.256Z,0.00
2018-07-10T01:17:06.199Z,0.00
2018-07-10T01:18:06.163Z,0.00
2018-07-10T01:19:06.126Z,0.00
2018-07-10T01:20:06.087Z,0.00
2018-07-10T01:21:06.063Z,0.00
2018-07-10T01:22:06.003Z,0.00
2018-07-10T01:23:05.970Z,0.00
2018-07-10T01:24:05.937Z,0.00
2018-07-10T01:25:05.885Z,0.00
2018-07-10T01:26:05.874Z,0.00
2018-07-10T01:27:05.814Z,0.00
2018-07-10T01:28:05.771Z,0.00
2018-07-10T01:29:05.744Z,0.00
2018-07-10T01:30:05.704Z,0.00
2018-07-10T01:31:05.665Z,0.00
2018-07-10T01:32:05.659Z,0.00
2018-07-10T01:33:05.581Z,0.00
2018-07-10T01:34:05.546Z,0.00
2018-07-10T01:35:05.504Z,0.00
2018-07-10T01:36:05.489Z,0.00
2018-07-10T01:37:05.437Z,0.00
2018-07-10T01:38:05.401Z,0.00
2018-07-10T01:39:05.353Z,0.00
2018-07-10T01:40:05.315Z,0.00
2018-07-10T01:41:05.305Z,0.00
2018-07-10T01:42:05.248Z,0.00
2018-07-10T01:43:05.204Z,0.00
2018-07-10T01:44:05.167Z,0.00
2018-07-10T01:45:05.119Z,0.00
2018-07-10T01:46:05.107Z,0.00
2018-07-10T01:47:05.048Z,0.00
2018-07-10T01:48:05.022Z,0.00
2018-07-10T01:49:04.973Z,0.00
2018-07-10T01:50:04.943Z,0.00
2018-07-10T01:51:04.926Z,0.00
2018-07-10T01:52:04.861Z,0.00
2018-07-10T01:53:04.816Z,0.00
2018-07-10T01:54:04.781Z,0.00
2018-07-10T01:55:04.745Z,0.00
2018-07-10T01:56:04.730Z,0.00
2018-07-10T01:57:04.658Z,0.00
2018-07-10T01:58:04.622Z,0.00
2018-07-10T01:59:04.584Z,0.00
2018-07-10T02:00:04.543Z,0.00
2018-07-10T02:01:04.534Z,0.00
2018-07-10T02:02:04.474Z,0.00
2018-07-10T02:03:04.440Z,0.00
2018-07-10T02:04:04.397Z,0.00
2018-07-10T02:05:04.353Z,0.00
2018-07-10T02:06:04.337Z,0.00
2018-07-10T02:07:04.276Z,0.00
2018-07-10T02:08:04.234Z,0.00
2018-07-10T02:09:04.207Z,0.00
2018-07-10T02:10:04.167Z,0.00
2018-07-10T02:11:04.147Z,0.00
2018-07-10T02:12:04.084Z,0.00
2018-07-10T02:13:04.051Z,0.00
2018-07-10T02:14:04.039Z,0.00
2018-07-10T02:15:03.974Z,0.00
2018-07-10T02:16:03.935Z,0.00
2018-07-10T02:17:03.915Z,0.00
2018-07-10T02:18:03.856Z,0.00
2018-07-10T02:19:03.812Z,0.00
2018-07-10T02:20:03.772Z,0.00
2018-07-10T02:21:03.742Z,0.00
2018-07-10T02:22:03.727Z,0.00
2018-07-10T02:23:03.668Z,0.00
2018-07-10T02:24:03.626Z,0.00
2018-07-10T02:25:03.580Z,0.00
2018-07-10T02:26:03.544Z,0.00
2018-07-10T02:27:03.542Z,0.00
2018-07-10T02:28:03.468Z,0.00
2018-07-10T02:29:03.428Z,0.00
2018-07-10T02:30:03.390Z,0.00
2018-07-10T02:31:03.356Z,0.00
2018-07-10T02:32:03.312Z,0.00
2018-07-10T02:33:03.315Z,0.00
2018-07-10T02:34:03.242Z,0.00
2018-07-10T02:35:03.212Z,0.00
2018-07-10T02:36:03.171Z,0.00
2018-07-10T02:37:03.123Z,0.00
2018-07-10T02:38:03.105Z,0.00
2018-07-10T02:39:03.049Z,0.00
2018-07-10T02:40:03.005Z,0.00
2018-07-10T02:41:02.972Z,0.00
2018-07-10T02:42:02.937Z,0.00
2018-07-10T02:43:02.928Z,0.00
2018-07-10T02:44:02.853Z,0.00
2018-07-10T02:45:02.817Z,0.00
2018-07-10T02:46:02.788Z,0.00
2018-07-10T02:47:02.749Z,0.00
2018-07-10T02:48:02.704Z,0.00
2018-07-10T02:49:02.681Z,0.00
2018-07-10T02:50:02.624Z,0.00
2018-07-10T02:51:02.581Z,0.00
2018-07-10T02:52:02.547Z,4.00
2018-07-10T02:53:02.527Z,4.00
2018-07-10T02:54:02.497Z,4.00
2018-07-10T02:55:02.440Z,0.00
2018-07-10T02:56:02.395Z,4.00
2018-07-10T02:57:02.351Z,4.00
2018-07-10T02:58:02.318Z,4.00
2018-07-10T02:59:02.282Z,4.00
2018-07-10T03:00:02.269Z,4.00
2018-07-10T03:01:02.199Z,8.00
2018-07-10T03:02:02.159Z,8.00
2018-07-10T03:03:02.119Z,8.00
2018-07-10T03:04:02.083Z,12.00
2018-07-10T03:05:02.132Z,12.00
2018-07-10T03:06:02.009Z,16.00
2018-07-10T03:07:01.971Z,16.00
2018-07-10T03:08:01.936Z,24.00
2018-07-10T03:09:01.887Z,24.00
2018-07-10T03:10:01.849Z,32.00
2018-07-10T03:11:01.835Z,36.00
2018-07-10T03:12:01.772Z,36.00
2018-07-10T03:13:01.741Z,48.00
2018-07-10T03:14:01.704Z,48.00
2018-07-10T03:15:01.657Z,60.00
2018-07-10T03:16:01.638Z,64.00
2018-07-10T03:17:01.589Z,72.00
2018-07-10T03:18:01.549Z,80.00
2018-07-10T03:19:01.513Z,84.00
2018-07-10T03:20:01.474Z,96.00
2018-07-10T03:21:01.451Z,100.00
2018-07-10T03:22:01.383Z,108.00
2018-07-10T03:23:01.351Z,108.00
2018-07-10T03:24:01.309Z,112.00
2018-07-10T03:25:01.281Z,116.00
2018-07-10T03:26:01.265Z,120.00
2018-07-10T03:27:01.201Z,136.00
2018-07-10T03:28:01.159Z,156.00
2018-07-10T03:29:01.117Z,176.00
2018-07-10T03:30:01.082Z,188.00
2018-07-10T03:31:01.049Z,204.00
2018-07-10T03:32:01.032Z,212.00
2018-07-10T03:33:00.964Z,232.00
2018-07-10T03:34:00.925Z,252.00
2018-07-10T03:35:00.883Z,268.00
2018-07-10T03:36:00.855Z,284.00
2018-07-10T03:37:00.835Z,300.00
2018-07-10T03:38:00.778Z,316.00
2018-07-10T03:39:00.741Z,332.00
2018-07-10T03:40:00.699Z,336.00
2018-07-10T03:41:00.654Z,348.00
2018-07-10T03:42:00.641Z,360.00
2018-07-10T03:43:00.578Z,372.00
2018-07-10T03:44:00.536Z,380.00
2018-07-10T03:45:00.510Z,392.00
2018-07-10T03:46:00.472Z,412.00
2018-07-10T03:47:00.424Z,432.00
2018-07-10T03:48:00.405Z,464.00
2018-07-10T03:49:00.353Z,500.00
2018-07-10T03:50:00.316Z,532.00
2018-07-10T03:51:00.276Z,552.00
2018-07-10T03:52:00.237Z,568.00
2018-07-10T03:53:00.214Z,576.00
2018-07-10T03:54:00.155Z,596.00
2018-07-10T03:55:00.125Z,624.00
2018-07-10T03:56:00.076Z,628.00
2018-07-10T03:57:00.045Z,624.00
2018-07-10T03:58:00.038Z,612.00
2018-07-10T03:58:59.965Z,600.00
2018-07-10T03:59:59.930Z,592.00
2018-07-10T04:00:59.884Z,596.00
2018-07-10T04:01:59.842Z,628.00
2018-07-10T04:02:59.813Z,708.00
2018-07-10T04:03:59.799Z,788.00
2018-07-10T04:04:59.730Z,852.00
2018-07-10T04:05:59.691Z,876.00
2018-07-10T04:06:59.656Z,896.00
2018-07-10T04:07:59.612Z,952.00
2018-07-10T04:08:59.645Z,1016.00
2018-07-10T04:09:59.543Z,1072.00
2018-07-10T04:10:59.504Z,1108.00
2018-07-10T04:11:59.464Z,1168.00
2018-07-10T04:12:59.419Z,1236.00
2018-07-10T04:13:59.386Z,1300.00
2018-07-10T04:14:59.363Z,1352.00
2018-07-10T04:15:59.311Z,1376.00
2018-07-10T04:16:59.276Z,1384.00
2018-07-10T04:17:59.235Z,1388.00
2018-07-10T04:18:59.194Z,1364.00
2018-07-10T04:19:59.180Z,1320.00
2018-07-10T04:20:59.125Z,1304.00
2018-07-10T04:21:59.081Z,1344.00
2018-07-10T04:22:59.065Z,1416.00
2018-07-10T04:23:59.004Z,1480.00
2018-07-10T04:24:58.960Z,1552.00
2018-07-10T04:25:58.939Z,1616.00
2018-07-10T04:26:58.885Z,1680.00
2018-07-10T04:27:58.841Z,1760.00
2018-07-10T04:28:58.848Z,1816.00
2018-07-10T04:29:58.775Z,1840.00
2018-07-10T04:30:58.765Z,1780.00
2018-07-10T04:31:58.696Z,1704.00
2018-07-10T04:32:58.650Z,1648.00
2018-07-10T04:33:58.614Z,1640.00
2018-07-10T04:34:58.584Z,1684.00
2018-07-10T04:35:58.541Z,1776.00
2018-07-10T04:36:58.518Z,1920.00
2018-07-10T04:37:58.459Z,2108.00
2018-07-10T04:38:58.421Z,2284.00
2018-07-10T04:39:58.381Z,2412.00
2018-07-10T04:40:58.352Z,2416.00
2018-07-10T04:41:58.334Z,2408.00
2018-07-10T04:42:58.274Z,2460.00
2018-07-10T04:43:58.229Z,2488.00
2018-07-10T04:44:58.200Z,2484.00
2018-07-10T04:45:58.159Z,2528.00
2018-07-10T04:46:58.145Z,2592.00
2018-07-10T04:47:58.084Z,2612.00
2018-07-10T04:48:58.052Z,2648.00
2018-07-10T04:49:58.003Z,2740.00
2018-07-10T04:50:57.971Z,2816.00
2018-07-10T04:51:57.952Z,2892.00
2018-07-10T04:52:57.887Z,3016.00
2018-07-10T04:53:57.850Z,3200.00
2018-07-10T04:54:57.807Z,3408.00
2018-07-10T04:55:57.770Z,3624.00
2018-07-10T04:56:57.766Z,3928.00
2018-07-10T04:57:57.697Z,4368.00
2018-07-10T04:58:57.665Z,4956.00
2018-07-10T04:59:57.625Z,5580.00
2018-07-10T05:00:57.578Z,6164.00
2018-07-10T05:01:57.541Z,6708.00
2018-07-10T05:02:57.525Z,7208.00
2018-07-10T05:03:57.468Z,7396.00
2018-07-10T05:04:57.434Z,7392.00
2018-07-10T05:05:57.431Z,7648.00
2018-07-10T05:06:57.352Z,6984.00
2018-07-10T05:07:57.329Z,6004.00
2018-07-10T05:08:57.279Z,5412.00
2018-07-10T05:09:57.242Z,5728.00
2018-07-10T05:10:57.207Z,6804.00
2018-07-10T05:11:57.173Z,11412.00
2018-07-10T05:12:57.149Z,11692.00
2018-07-10T05:13:57.087Z,11920.00
2018-07-10T05:14:57.049Z,12184.00
2018-07-10T05:15:57.007Z,13464.00
2018-07-10T05:16:56.980Z,18816.00
2018-07-10T05:17:56.941Z,24256.00
2018-07-10T05:18:56.927Z,26784.00
2018-07-10T05:19:56.866Z,25344.00
2018-07-10T05:20:56.824Z,24576.00
2018-07-10T05:21:56.786Z,26016.00
2018-07-10T05:22:56.822Z,26112.00
2018-07-10T05:23:56.720Z,25792.00
2018-07-10T05:24:56.676Z,22112.00
2018-07-10T05:25:56.638Z,23360.00
2018-07-10T05:26:56.608Z,16736.00
2018-07-10T05:27:56.590Z,23328.00
2018-07-10T05:28:56.678Z,24256.00
2018-07-10T05:29:56.508Z,25536.00
2018-07-10T05:30:56.472Z,8800.00
2018-07-10T05:31:56.435Z,26400.00
2018-07-10T05:32:56.419Z,24160.00
2018-07-10T05:33:56.361Z,10212.00
2018-07-10T05:34:56.326Z,24768.00
2018-07-10T05:35:56.289Z,22560.00
2018-07-10T05:36:56.263Z,22080.00
2018-07-10T05:37:56.253Z,25536.00
2018-07-10T05:38:56.189Z,28544.00
2018-07-10T05:39:56.152Z,27168.00
2018-07-10T05:40:56.129Z,13400.00
2018-07-10T05:41:56.092Z,23552.00
2018-07-10T05:42:56.083Z,24768.00
2018-07-10T05:43:56.026Z,18176.00
2018-07-10T05:44:55.983Z,12592.00
2018-07-10T05:45:55.952Z,29632.00
2018-07-10T05:46:55.920Z,29920.00
2018-07-10T05:47:55.911Z,30336.00
2018-07-10T05:48:55.856Z,30112.00
2018-07-10T05:49:55.827Z,31936.00
2018-07-10T05:50:55.796Z,35200.00
2018-07-10T05:51:55.817Z,19904.00
2018-07-10T05:52:55.743Z,19360.00
2018-07-10T05:53:55.684Z,20640.00
2018-07-10T05:54:55.671Z,24256.00
2018-07-10T05:55:55.630Z,23936.00
2018-07-10T05:56:55.585Z,18144.00
2018-07-10T05:57:55.572Z,16544.00
2018-07-10T05:58:55.522Z,19008.00
2018-07-10T05:59:55.488Z,21824.00
2018-07-10T06:00:55.463Z,15228.00
2018-07-10T06:01:55.424Z,12444.00
2018-07-10T06:02:55.417Z,10672.00
2018-07-10T06:03:55.363Z,11132.00
2018-07-10T06:04:55.321Z,11948.00
2018-07-10T06:05:55.284Z,12868.00
2018-07-10T06:06:55.279Z,15056.00
2018-07-10T06:07:55.221Z,13840.00
2018-07-10T06:08:55.200Z,13704.00
2018-07-10T06:09:55.158Z,15660.00
2018-07-10T06:10:55.121Z,15892.00
2018-07-10T06:11:55.108Z,20448.00
2018-07-10T06:12:55.062Z,16096.00
2018-07-10T06:13:55.064Z,15872.00
2018-07-10T06:14:54.991Z,16448.00
2018-07-10T06:15:54.955Z,18304.00
2018-07-10T06:16:54.936Z,19520.00
2018-07-10T06:17:54.883Z,23712.00
2018-07-10T06:18:54.849Z,24672.00
2018-07-10T06:19:54.810Z,34016.00
2018-07-10T06:20:54.783Z,39648.00
2018-07-10T06:21:54.774Z,34528.00
2018-07-10T06:22:54.717Z,38944.00
2018-07-10T06:23:54.679Z,36704.00
2018-07-10T06:24:54.640Z,40288.00
2018-07-10T06:25:54.605Z,44128.00
2018-07-10T06:26:54.608Z,40192.00
2018-07-10T06:27:54.542Z,47392.00
2018-07-10T06:28:54.506Z,29344.00
2018-07-10T06:29:54.474Z,23008.00
2018-07-10T06:30:54.442Z,21824.00
2018-07-10T06:31:54.429Z,21888.00
2018-07-10T06:32:54.376Z,19840.00
2018-07-10T06:33:54.347Z,19008.00
2018-07-10T06:34:54.312Z,14628.00
2018-07-10T06:35:54.286Z,13244.00
2018-07-10T06:36:54.238Z,11820.00
2018-07-10T06:37:54.230Z,12292.00
2018-07-10T06:38:54.177Z,12468.00
2018-07-10T06:39:54.140Z,13544.00
2018-07-10T06:40:54.116Z,15128.00
2018-07-10T06:41:54.083Z,14268.00
2018-07-10T06:42:54.060Z,10644.00
2018-07-10T06:43:54.007Z,8528.00
2018-07-10T06:44:53.983Z,8936.00
2018-07-10T06:45:53.946Z,10164.00
2018-07-10T06:46:53.910Z,11916.00
2018-07-10T06:47:53.909Z,12916.00
2018-07-10T06:48:53.839Z,12304.00
2018-07-10T06:49:53.807Z,13448.00
2018-07-10T06:50:53.768Z,14448.00
2018-07-10T06:51:53.737Z,13320.00
2018-07-10T06:52:53.988Z,12968.00
2018-07-10T06:53:53.699Z,15284.00
2018-07-10T06:54:53.645Z,12632.00
2018-07-10T06:55:53.609Z,14208.00
2018-07-10T06:56:53.565Z,15808.00
2018-07-10T06:57:53.529Z,17760.00
2018-07-10T06:58:53.527Z,19616.00
2018-07-10T06:59:53.467Z,18688.00
2018-07-10T07:00:53.427Z,25056.00
2018-07-10T07:01:53.390Z,18688.00
2018-07-10T07:02:53.355Z,16800.00
2018-07-10T07:03:53.321Z,15600.00
2018-07-10T07:04:53.316Z,15160.00
2018-07-10T07:05:53.259Z,14848.00
2018-07-10T07:06:53.222Z,14296.00
2018-07-10T07:07:53.243Z,14124.00
2018-07-10T07:08:53.145Z,14124.00
2018-07-10T07:09:53.130Z,13716.00
2018-07-10T07:10:53.083Z,13684.00
2018-07-10T07:11:53.043Z,13408.00
2018-07-10T07:12:53.008Z,12232.00
2018-07-10T07:13:52.975Z,11800.00
2018-07-10T07:14:52.963Z,12356.00
2018-07-10T07:15:52.940Z,12856.00
2018-07-10T07:16:52.872Z,12828.00
2018-07-10T07:17:52.835Z,11476.00
2018-07-10T07:18:52.800Z,10732.00
2018-07-10T07:19:52.798Z,11668.00
2018-07-10T07:20:52.722Z,13132.00
2018-07-10T07:21:52.743Z,13500.00
2018-07-10T07:22:52.677Z,13604.00
2018-07-10T07:23:52.636Z,14200.00
2018-07-10T07:24:52.587Z,14068.00
2018-07-10T07:25:52.574Z,12844.00
2018-07-10T07:26:52.517Z,11760.00
2018-07-10T07:27:52.533Z,11968.00
2018-07-10T07:28:52.445Z,12828.00
2018-07-10T07:29:52.407Z,13580.00
2018-07-10T07:30:52.396Z,14224.00
2018-07-10T07:31:52.336Z,14248.00
2018-07-10T07:32:52.347Z,13564.00
2018-07-10T07:33:52.263Z,12652.00
2018-07-10T07:34:52.273Z,12416.00
2018-07-10T07:35:52.214Z,12484.00
2018-07-10T07:36:52.157Z,13956.00
2018-07-10T07:37:52.128Z,15508.00
2018-07-10T07:38:52.105Z,16224.00
2018-07-10T07:39:52.049Z,16736.00
2018-07-10T07:40:52.038Z,16896.00
2018-07-10T07:41:51.974Z,16180.00
2018-07-10T07:42:51.940Z,15164.00
2018-07-10T07:43:51.958Z,14132.00
2018-07-10T07:44:51.875Z,13412.00
2018-07-10T07:45:51.836Z,13620.00
2018-07-10T07:46:51.813Z,13592.00
2018-07-10T07:47:51.759Z,12220.00
2018-07-10T07:48:51.763Z,12760.00
2018-07-10T07:49:51.704Z,14828.00
2018-07-10T07:50:51.659Z,17152.00
2018-07-10T07:51:51.645Z,18784.00
2018-07-10T07:52:51.583Z,17536.00
2018-07-10T07:53:51.542Z,16244.00
2018-07-10T07:54:51.511Z,14984.00
2018-07-10T07:55:51.513Z,13480.00
2018-07-10T07:56:51.471Z,12988.00
2018-07-10T07:57:51.407Z,12804.00
2018-07-10T07:58:51.370Z,12436.00
2018-07-10T07:59:51.335Z,12724.00
2018-07-10T08:00:51.291Z,13504.00
2018-07-10T08:01:51.261Z,13964.00
2018-07-10T08:02:51.246Z,14220.00
2018-07-10T08:03:51.192Z,14288.00
2018-07-10T08:04:51.212Z,14476.00
2018-07-10T08:05:51.113Z,14388.00
2018-07-10T08:06:51.090Z,14628.00
2018-07-10T08:07:51.061Z,15132.00
2018-07-10T08:08:51.033Z,16028.00
2018-07-10T08:09:50.978Z,16504.00
2018-07-10T08:10:50.943Z,16660.00
2018-07-10T08:11:50.911Z,16064.00
2018-07-10T08:12:50.888Z,15212.00
2018-07-10T08:13:50.827Z,14288.00
2018-07-10T08:14:50.791Z,13624.00
2018-07-10T08:15:50.753Z,13060.00
2018-07-10T08:16:50.725Z,12160.00
2018-07-10T08:17:50.689Z,11104.00
2018-07-10T08:18:50.672Z,10100.00
2018-07-10T08:19:50.610Z,9236.00
2018-07-10T08:20:50.582Z,8820.00
2018-07-10T08:21:50.547Z,8724.00
2018-07-10T08:22:50.518Z,8640.00
2018-07-10T08:23:50.495Z,8508.00
2018-07-10T08:24:50.434Z,8480.00
2018-07-10T08:25:50.397Z,8904.00
2018-07-10T08:26:50.363Z,9732.00
2018-07-10T08:27:50.330Z,10760.00
2018-07-10T08:28:50.325Z,11384.00
2018-07-10T08:29:50.258Z,12420.00
2018-07-10T08:30:50.225Z,13328.00
2018-07-10T08:31:50.193Z,13572.00
2018-07-10T08:32:50.145Z,12804.00
2018-07-10T08:33:50.338Z,12284.00
2018-07-10T08:34:50.084Z,11648.00
2018-07-10T08:35:50.051Z,11008.00
2018-07-10T08:36:50.005Z,11492.00
2018-07-10T08:37:49.964Z,12588.00
2018-07-10T08:38:49.930Z,13304.00
2018-07-10T08:39:49.913Z,13024.00
2018-07-10T08:40:49.869Z,12384.00
2018-07-10T08:41:49.823Z,11796.00
2018-07-10T08:42:49.791Z,11240.00
2018-07-10T08:43:49.757Z,10888.00
2018-07-10T08:44:49.734Z,10792.00
2018-07-10T08:45:49.681Z,11216.00
2018-07-10T08:46:49.644Z,11624.00
2018-07-10T08:47:49.608Z,11836.00
2018-07-10T08:48:49.580Z,12292.00
2018-07-10T08:49:49.568Z,12180.00
2018-07-10T08:50:49.498Z,11056.00
2018-07-10T08:51:49.480Z,9568.00
2018-07-10T08:52:49.434Z,8788.00
2018-07-10T08:53:49.397Z,7912.00
2018-07-10T08:54:49.360Z,6484.00
2018-07-10T08:55:49.346Z,6904.00
2018-07-10T08:56:49.279Z,7472.00
2018-07-10T08:57:49.244Z,6528.00
2018-07-10T08:58:49.209Z,5620.00
2018-07-10T08:59:49.205Z,5996.00
2018-07-10T09:00:49.142Z,7220.00
2018-07-10T09:01:49.110Z,7620.00
2018-07-10T09:02:49.072Z,7520.00
2018-07-10T09:03:49.040Z,7176.00
2018-07-10T09:04:48.990Z,6840.00
2018-07-10T09:05:48.978Z,6492.00
2018-07-10T09:06:48.924Z,6832.00
2018-07-10T09:07:48.893Z,6480.00
2018-07-10T09:08:48.848Z,6708.00
2018-07-10T09:09:48.809Z,8172.00
2018-07-10T09:10:48.801Z,9592.00
2018-07-10T09:11:48.732Z,10240.00
2018-07-10T09:12:48.707Z,10784.00
2018-07-10T09:13:48.744Z,11380.00
2018-07-10T09:14:48.632Z,12296.00
2018-07-10T09:15:48.615Z,12260.00
2018-07-10T09:16:48.555Z,11244.00
2018-07-10T09:17:48.524Z,9400.00
2018-07-10T09:18:48.480Z,7492.00
2018-07-10T09:19:48.444Z,5996.00
2018-07-10T09:20:48.439Z,5136.00
2018-07-10T09:21:48.378Z,4796.00
2018-07-10T09:22:48.336Z,4348.00
2018-07-10T09:23:48.298Z,4032.00
2018-07-10T09:24:48.266Z,4156.00
2018-07-10T09:25:48.230Z,4536.00
2018-07-10T09:26:48.215Z,5024.00
2018-07-10T09:27:48.156Z,5856.00
2018-07-10T09:28:48.115Z,6820.00
2018-07-10T09:29:48.075Z,7936.00
2018-07-10T09:30:48.042Z,9508.00
2018-07-10T09:31:48.031Z,11800.00
2018-07-10T09:32:47.971Z,13256.00
2018-07-10T09:33:47.970Z,13136.00
2018-07-10T09:34:47.899Z,11760.00
2018-07-10T09:35:47.865Z,10420.00
2018-07-10T09:36:47.820Z,10004.00
2018-07-10T09:37:47.805Z,10076.00
2018-07-10T09:38:47.755Z,10356.00
2018-07-10T09:39:47.728Z,10588.00
2018-07-10T09:40:47.672Z,10376.00
2018-07-10T09:41:47.637Z,9764.00
2018-07-10T09:42:47.620Z,9048.00
2018-07-10T09:43:47.563Z,7764.00
2018-07-10T09:44:47.539Z,6288.00
2018-07-10T09:45:47.497Z,5552.00
2018-07-10T09:46:47.461Z,6028.00
2018-07-10T09:47:47.448Z,6544.00
2018-07-10T09:48:47.378Z,6688.00
2018-07-10T09:49:47.340Z,7652.00
2018-07-10T09:50:47.306Z,8144.00
2018-07-10T09:51:47.267Z,8112.00
2018-07-10T09:52:47.251Z,8092.00
2018-07-10T09:53:47.221Z,8348.00
2018-07-10T09:54:47.213Z,9428.00
2018-07-10T09:55:47.170Z,10612.00
2018-07-10T09:56:47.091Z,11980.00
2018-07-10T09:57:47.057Z,13240.00
2018-07-10T09:58:47.038Z,13916.00
2018-07-10T09:59:46.977Z,13912.00
2018-07-10T10:00:46.939Z,14356.00
2018-07-10T10:01:46.938Z,15180.00
2018-07-10T10:02:46.868Z,16128.00
2018-07-10T10:03:46.852Z,17120.00
2018-07-10T10:04:46.804Z,17536.00
2018-07-10T10:05:46.760Z,17984.00
2018-07-10T10:06:46.723Z,19488.00
2018-07-10T10:07:46.684Z,17664.00
2018-07-10T10:08:46.643Z,13428.00
2018-07-10T10:09:46.628Z,10660.00
2018-07-10T10:10:46.578Z,8964.00
2018-07-10T10:11:46.538Z,12568.00
2018-07-10T10:12:46.497Z,13584.00
2018-07-10T10:13:46.463Z,13448.00
2018-07-10T10:14:46.448Z,12712.00
2018-07-10T10:15:46.385Z,12996.00
2018-07-10T10:16:46.355Z,13312.00
2018-07-10T10:17:46.323Z,13008.00
2018-07-10T10:18:46.286Z,12512.00
2018-07-10T10:19:46.278Z,11128.00
2018-07-10T10:20:46.209Z,10184.00
2018-07-10T10:21:46.171Z,9644.00
2018-07-10T10:22:46.136Z,8392.00
2018-07-10T10:23:46.095Z,7460.00
2018-07-10T10:24:46.068Z,7580.00
2018-07-10T10:25:46.112Z,7728.00
2018-07-10T10:26:45.989Z,7600.00
2018-07-10T10:27:45.952Z,7176.00
2018-07-10T10:28:45.922Z,6168.00
2018-07-10T10:29:45.883Z,5496.00
2018-07-10T10:30:45.870Z,5036.00
2018-07-10T10:31:45.813Z,5096.00
2018-07-10T10:32:45.769Z,5492.00
2018-07-10T10:33:45.733Z,6444.00
2018-07-10T10:34:45.696Z,7312.00
2018-07-10T10:35:45.704Z,7868.00
2018-07-10T10:36:45.629Z,8664.00
2018-07-10T10:37:45.593Z,9700.00
2018-07-10T10:38:45.557Z,11336.00
2018-07-10T10:39:45.517Z,11740.00
2018-07-10T10:40:45.476Z,11900.00
2018-07-10T10:41:45.460Z,11984.00
2018-07-10T10:42:45.410Z,11332.00
2018-07-10T10:43:45.368Z,9640.00
2018-07-10T10:44:45.329Z,8832.00
2018-07-10T10:45:45.290Z,8688.00
2018-07-10T10:46:45.273Z,8708.00
2018-07-10T10:47:45.216Z,8812.00
2018-07-10T10:48:45.187Z,8576.00
2018-07-10T10:49:45.148Z,7184.00
2018-07-10T10:50:45.110Z,5936.00
2018-07-10T10:51:45.102Z,5344.00
2018-07-10T10:52:45.036Z,5680.00
2018-07-10T10:53:44.992Z,6528.00
2018-07-10T10:54:44.953Z,6728.00
2018-07-10T10:55:44.918Z,6072.00
2018-07-10T10:56:44.885Z,5804.00
2018-07-10T10:57:44.873Z,5936.00
2018-07-10T10:58:44.806Z,5932.00
2018-07-10T10:59:44.769Z,5360.00
2018-07-10T11:00:44.736Z,5144.00
2018-07-10T11:01:44.699Z,5484.00
2018-07-10T11:02:44.761Z,6232.00
2018-07-10T11:03:44.626Z,6692.00
2018-07-10T11:04:44.581Z,6516.00
2018-07-10T11:05:44.545Z,6404.00
2018-07-10T11:06:44.509Z,6980.00
2018-07-10T11:07:44.491Z,7872.00
2018-07-10T11:08:44.438Z,8076.00
2018-07-10T11:09:44.404Z,8036.00
2018-07-10T11:10:44.370Z,8468.00
2018-07-10T11:11:44.327Z,9468.00
2018-07-10T11:12:44.308Z,10796.00
2018-07-10T11:13:44.246Z,11212.00
2018-07-10T11:14:44.215Z,11692.00
2018-07-10T11:15:44.177Z,12116.00
2018-07-10T11:16:44.133Z,12388.00
2018-07-10T11:17:44.096Z,11124.00
2018-07-10T11:18:44.079Z,9168.00
2018-07-10T11:19:44.023Z,9128.00
2018-07-10T11:20:43.991Z,9908.00
2018-07-10T11:21:43.953Z,10444.00
2018-07-10T11:22:43.915Z,10804.00
2018-07-10T11:23:43.905Z,10432.00
2018-07-10T11:24:43.834Z,9164.00
2018-07-10T11:25:43.801Z,8352.00
2018-07-10T11:26:43.758Z,8284.00
2018-07-10T11:27:43.723Z,8412.00
2018-07-10T11:28:43.693Z,8880.00
2018-07-10T11:29:43.677Z,9236.00
2018-07-10T11:30:43.612Z,10456.00
2018-07-10T11:31:43.575Z,11944.00
2018-07-10T11:32:43.546Z,11696.00
2018-07-10T11:33:43.514Z,12108.00
2018-07-10T11:34:43.489Z,12508.00
2018-07-10T11:35:43.430Z,10900.00
2018-07-10T11:36:43.389Z,8724.00
2018-07-10T11:37:43.352Z,7944.00
2018-07-10T11:38:43.317Z,7780.00
2018-07-10T11:39:43.305Z,7748.00
2018-07-10T11:40:43.246Z,8452.00
2018-07-10T11:41:43.208Z,9120.00
2018-07-10T11:42:43.173Z,9704.00
2018-07-10T11:43:43.137Z,9896.00
2018-07-10T11:44:43.090Z,10024.00
2018-07-10T11:45:43.095Z,10364.00
2018-07-10T11:46:43.025Z,10188.00
2018-07-10T11:47:42.988Z,11000.00
2018-07-10T11:48:42.942Z,12204.00
2018-07-10T11:49:42.906Z,12024.00
2018-07-10T11:50:42.892Z,12408.00
2018-07-10T11:51:42.871Z,10848.00
2018-07-10T11:52:42.804Z,8996.00
2018-07-10T11:53:42.765Z,8620.00
2018-07-10T11:54:42.728Z,9204.00
2018-07-10T11:55:42.718Z,8456.00
2018-07-10T11:56:42.651Z,7192.00
2018-07-10T11:57:42.611Z,6796.00
2018-07-10T11:58:42.574Z,6692.00
2018-07-10T11:59:42.537Z,6552.00
2018-07-10T12:00:42.510Z,7072.00
2018-07-10T12:01:42.493Z,7608.00
2018-07-10T12:02:42.432Z,6968.00
2018-07-10T12:03:42.391Z,6364.00
2018-07-10T12:04:42.365Z,6052.00
2018-07-10T12:05:42.328Z,5808.00
2018-07-10T12:06:42.315Z,5328.00
2018-07-10T12:07:42.250Z,5032.00
2018-07-10T12:08:42.206Z,4852.00
2018-07-10T12:09:42.170Z,4404.00
2018-07-10T12:10:42.135Z,3924.00
2018-07-10T12:11:42.118Z,3572.00
2018-07-10T12:12:42.142Z,3460.00
2018-07-10T12:13:42.029Z,3604.00
2018-07-10T12:14:41.992Z,3868.00
2018-07-10T12:15:41.953Z,3956.00